Time;durP1;ratioP1;P1;durP2;ratioP2;P2;SDS_P1;SDS_P2;PMS_P1;PMS_P2;Temp;Humidity;BMP_temperature;BMP_pressure;BME280_temperature;BME280_humidity;BME280_pressure;Samples;Min_cycle;Max_cycle;Signal;HPM_P1;HPM_P2
2022/01/11 00:00:20;;;;;;;3.83;2.75;;;;;;;2.25;100.00;90066.13;5076890;28;20042;-68
2022/01/11 00:02:47;;;;;;;7.10;3.70;;;;;;;2.25;100.00;90073.22;5095034;28;20032;-68
2022/01/11 00:05:28;;;;;;;6.88;3.22;;;;;;;2.29;100.00;90077.63;5094685;28;20106;-69
2022/01/11 00:07:55;;;;;;;6.00;3.80;;;;;;;2.28;100.00;90076.06;5094963;28;20537;-68
2022/01/11 00:10:29;;;;;;;5.47;4.05;;;;;;;2.28;100.00;90076.06;5094980;28;20039;-68
2022/01/11 00:12:56;;;;;;;7.97;3.97;;;;;;;2.13;100.00;90078.06;5094841;28;20067;-69
2022/01/11 00:15:22;;;;;;;6.65;3.40;;;;;;;2.03;100.00;90079.72;5094733;28;20044;-68
2022/01/11 00:17:48;;;;;;;6.30;4.13;;;;;;;1.92;100.00;90080.91;5094787;28;20502;-69
2022/01/11 00:20:16;;;;;;;4.63;3.15;;;;;;;1.99;100.00;90080.56;5094782;28;20070;-68
2022/01/11 00:25:38;;;;;;;5.10;3.30;;;;;;;2.00;100.00;90092.63;5063364;28;20052;-68
2022/01/11 00:28:05;;;;;;;6.10;3.90;;;;;;;2.05;100.00;90096.00;5094654;28;20111;-69
2022/01/11 00:30:34;;;;;;;4.32;3.28;;;;;;;1.95;100.00;90088.22;5076329;28;20414;-69
2022/01/11 00:33:03;;;;;;;4.65;3.17;;;;;;;1.99;100.00;90088.44;5094436;28;20039;-68
2022/01/11 00:35:39;;;;;;;4.60;3.78;;;;;;;1.95;100.00;90072.47;5094309;28;20036;-68
2022/01/11 00:38:05;;;;;;;4.40;3.35;;;;;;;1.99;100.00;90077.94;5094491;28;20063;-68
2022/01/11 00:40:31;;;;;;;4.15;2.75;;;;;;;2.16;100.00;90082.75;5094413;28;20028;-68
2022/01/11 00:42:59;;;;;;;5.50;3.35;;;;;;;2.08;100.00;90087.56;5094272;28;20031;-68
2022/01/11 00:45:26;;;;;;;5.38;3.83;;;;;;;2.10;100.00;90085.44;5094497;28;20115;-68
2022/01/11 00:47:51;;;;;;;6.82;4.28;;;;;;;2.12;100.00;90089.63;5114658;28;20031;-68
2022/01/11 00:50:18;;;;;;;9.30;5.47;;;;;;;2.06;100.00;90084.44;5114544;28;20039;-68
2022/01/11 00:52:43;;;;;;;6.53;5.00;;;;;;;2.19;100.00;90095.31;5114427;28;20066;-68
2022/01/11 00:55:09;;;;;;;10.30;6.03;;;;;;;2.19;100.00;90087.44;5114398;28;20055;-69
2022/01/11 00:57:34;;;;;;;4.75;3.95;;;;;;;2.14;100.00;90079.63;5114455;28;20390;-68
2022/01/11 01:00:00;;;;;;;2.65;2.20;;;;;;;2.23;100.00;90089.25;5114398;28;20061;-69
2022/01/11 01:02:26;;;;;;;2.72;1.85;;;;;;;2.25;100.00;90096.84;5114364;28;20027;-69
2022/01/11 01:04:51;;;;;;;2.97;1.80;;;;;;;2.26;100.00;90093.16;5095828;28;20400;-69
2022/01/11 01:07:17;;;;;;;1.45;1.20;;;;;;;2.26;100.00;90082.66;5114011;28;20112;-69
2022/01/11 01:10:08;;;;;;;1.50;1.40;;;;;;;2.22;100.00;90097.41;5114265;28;20047;-69
2022/01/11 01:12:33;;;;;;;1.30;1.10;;;;;;;2.06;100.00;90088.91;5114257;28;20024;-69
2022/01/11 01:15:00;;;;;;;0.90;0.90;;;;;;;1.99;100.00;90091.84;5113994;28;20088;-69
2022/01/11 01:17:26;;;;;;;1.23;1.13;;;;;;;2.02;100.00;90093.13;5114082;28;20449;-69
2022/01/11 01:19:52;;;;;;;1.30;1.20;;;;;;;2.02;100.00;90083.41;5114043;28;20164;-69
2022/01/11 01:22:18;;;;;;;2.00;1.35;;;;;;;2.05;100.00;90098.63;5113982;28;20098;-69
2022/01/11 01:24:43;;;;;;;1.95;1.42;;;;;;;2.00;100.00;90087.38;5113833;28;20397;-69
2022/01/11 01:27:09;;;;;;;1.30;1.20;;;;;;;2.05;100.00;90097.81;5114482;28;20032;-69
2022/01/11 01:29:34;;;;;;;1.50;1.00;;;;;;;2.02;100.00;90107.00;5113912;28;20070;-69
2022/01/11 01:32:01;;;;;;;1.02;1.00;;;;;;;1.91;100.00;90104.78;5113748;28;20032;-70
2022/01/11 01:34:26;;;;;;;1.48;1.10;;;;;;;1.86;100.00;90100.34;5113556;28;20019;-69
2022/01/11 01:36:52;;;;;;;0.80;0.80;;;;;;;1.78;100.00;90109.59;5113731;28;20061;-69
2022/01/11 01:39:18;;;;;;;1.15;1.05;;;;;;;1.75;100.00;90120.66;5113562;28;20481;-68
2022/01/11 01:41:45;;;;;;;1.20;1.10;;;;;;;1.77;100.00;90112.50;5113605;28;20034;-68
2022/01/11 01:44:12;;;;;;;1.10;1.00;;;;;;;1.77;100.00;90112.50;5113482;28;20038;-68
2022/01/11 01:46:39;;;;;;;1.00;0.90;;;;;;;1.67;100.00;90123.84;5113512;28;20032;-69
2022/01/11 01:49:05;;;;;;;0.90;0.90;;;;;;;1.72;100.00;90115.94;5113510;28;20027;-69
2022/01/11 01:51:31;;;;;;;1.00;0.90;;;;;;;1.70;100.00;90127.75;5113405;28;20031;-68
2022/01/11 01:53:57;;;;;;;1.33;1.10;;;;;;;1.68;100.00;90124.63;5113394;28;20039;-69
2022/01/11 01:56:24;;;;;;;1.20;1.10;;;;;;;1.69;100.00;90129.59;5113274;28;20027;-69
2022/01/11 01:58:50;;;;;;;2.05;1.30;;;;;;;1.68;100.00;90135.13;5113246;28;20441;-69
2022/01/11 02:01:16;;;;;;;1.33;1.23;;;;;;;1.74;100.00;90126.19;5113168;28;20069;-69
2022/01/11 02:03:44;;;;;;;0.90;0.90;;;;;;;1.70;100.00;90122.50;5113091;28;20055;-69
2022/01/11 02:06:12;;;;;;;1.00;1.00;;;;;;;1.70;100.00;90139.03;5112971;28;20524;-69
2022/01/11 02:08:39;;;;;;;0.80;0.80;;;;;;;1.74;100.00;90140.06;5113105;28;20030;-69
2022/01/11 02:11:06;;;;;;;1.40;1.20;;;;;;;1.75;100.00;90133.75;5113049;28;20088;-69
2022/01/11 02:13:31;;;;;;;2.05;1.10;;;;;;;1.76;100.00;90137.94;5112787;28;20405;-69
2022/01/11 02:15:57;;;;;;;1.45;1.20;;;;;;;1.87;100.00;90128.13;5112392;28;20019;-69
2022/01/11 02:18:26;;;;;;;1.30;1.20;;;;;;;1.85;100.00;90134.72;5112951;28;20019;-69
2022/01/11 02:20:55;;;;;;;1.10;1.00;;;;;;;1.90;100.00;90145.19;5113148;28;20396;-69
2022/01/11 02:23:22;;;;;;;1.15;1.05;;;;;;;1.71;100.00;90140.59;5112744;28;20023;-69
2022/01/11 02:25:48;;;;;;;0.80;0.80;;;;;;;1.68;100.00;90140.38;5112734;28;20027;-69
2022/01/11 02:28:17;;;;;;;1.40;1.20;;;;;;;1.65;100.00;90133.84;5112760;28;20524;-69
2022/01/11 02:30:43;;;;;;;1.63;1.45;;;;;;;1.71;100.00;90151.06;5094321;28;20020;-69
2022/01/11 02:33:32;;;;;;;2.47;2.00;;;;;;;1.77;100.00;90147.38;5112479;28;20050;-69
2022/01/11 02:35:58;;;;;;;1.60;1.23;;;;;;;1.77;100.00;90152.63;5112501;28;20027;-69
2022/01/11 02:38:23;;;;;;;3.33;2.50;;;;;;;1.78;100.00;90142.91;5112528;28;20033;-69
2022/01/11 02:40:49;;;;;;;2.67;2.08;;;;;;;1.76;100.00;90153.69;5094131;28;20118;-68
2022/01/11 02:43:14;;;;;;;2.20;1.88;;;;;;;1.73;100.00;90150.78;5112320;28;20470;-68
2022/01/11 02:45:40;;;;;;;2.95;2.22;;;;;;;1.68;100.00;90156.09;5112369;28;20031;-68
2022/01/11 02:48:06;;;;;;;2.75;2.22;;;;;;;1.65;100.00;90152.19;5094048;28;20114;-69
2022/01/11 02:50:32;;;;;;;2.50;2.00;;;;;;;1.59;100.00;90144.63;5112261;28;20106;-68
2022/01/11 02:52:57;;;;;;;3.47;2.20;;;;;;;1.56;100.00;90163.50;5112171;28;20036;-68
2022/01/11 02:55:23;;;;;;;2.58;1.75;;;;;;;1.58;100.00;90161.41;5112141;28;20051;-68
2022/01/11 02:57:48;;;;;;;1.50;1.40;;;;;;;1.55;100.00;90152.25;5112161;28;20019;-69
2022/01/11 03:00:19;;;;;;;1.70;1.60;;;;;;;1.47;100.00;90150.22;5112127;28;20039;-69
2022/01/11 03:02:46;;;;;;;2.25;1.35;;;;;;;1.43;100.00;90146.59;5111946;28;20028;-69
2022/01/11 03:05:12;;;;;;;3.10;2.20;;;;;;;1.44;100.00;90156.78;5268825;22;20110;-65
2022/01/11 03:07:39;;;;;;;2.55;2.30;;;;;;;1.47;100.00;90143.13;5090634;28;20058;-65
2022/01/11 03:10:21;;;;;;;4.13;2.08;;;;;;;1.50;100.00;90157.53;5091436;28;20035;-64
2022/01/11 03:12:46;;;;;;;4.43;2.60;;;;;;;1.53;100.00;90159.59;5091363;28;20023;-65
2022/01/11 03:15:13;;;;;;;3.40;2.20;;;;;;;1.59;100.00;90158.53;5091208;28;20024;-65
2022/01/11 03:17:40;;;;;;;4.20;2.80;;;;;;;1.53;100.00;90150.97;5091357;28;20028;-65
2022/01/11 03:20:07;;;;;;;2.42;1.80;;;;;;;1.49;100.00;90151.50;5091325;28;20505;-65
2022/01/11 03:22:32;;;;;;;3.30;2.03;;;;;;;1.48;100.00;90162.25;5091292;28;20077;-65
2022/01/11 03:24:58;;;;;;;2.50;2.20;;;;;;;1.48;100.00;90157.81;5091050;28;20103;-65
2022/01/11 03:27:24;;;;;;;3.17;2.75;;;;;;;1.43;100.00;90164.94;5090776;28;20531;-64
2022/01/11 03:29:51;;;;;;;1.98;1.88;;;;;;;1.38;100.00;90163.09;5090692;28;20031;-64
2022/01/11 03:32:18;;;;;;;2.28;2.00;;;;;;;1.37;100.00;90155.50;5091236;28;20032;-64
2022/01/11 03:34:45;;;;;;;2.08;1.80;;;;;;;1.41;100.00;90172.25;5072893;28;20513;-64
2022/01/11 03:37:17;;;;;;;2.10;1.90;;;;;;;1.45;100.00;90170.69;5091012;28;20066;-64
2022/01/11 03:39:43;;;;;;;2.85;1.98;;;;;;;1.44;100.00;90169.91;5091052;28;20024;-64
2022/01/11 03:42:09;;;;;;;1.80;1.60;;;;;;;1.43;100.00;90160.47;5090948;28;20039;-64
2022/01/11 03:44:35;;;;;;;4.63;1.52;;;;;;;1.44;100.00;90156.78;5090980;28;20020;-65
2022/01/11 03:47:01;;;;;;;2.17;1.60;;;;;;;1.50;100.00;90168.78;5090748;28;20082;-64
2022/01/11 03:49:27;;;;;;;2.83;2.40;;;;;;;1.54;100.00;90170.88;5090906;28;20066;-65
2022/01/11 03:51:52;;;;;;;2.90;1.90;;;;;;;1.53;100.00;90166.69;5090863;28;20052;-64
2022/01/11 03:54:23;;;;;;;2.78;2.10;;;;;;;1.51;100.00;90172.19;5090743;28;20051;-64
2022/01/11 03:56:49;;;;;;;3.10;2.00;;;;;;;1.53;100.00;90174.53;5090808;28;20448;-65
2022/01/11 03:59:14;;;;;;;2.33;1.95;;;;;;;1.56;100.00;90179.25;5090821;28;20027;-64
2022/01/11 04:01:40;;;;;;;2.22;2.03;;;;;;;1.49;100.00;90175.09;5090789;28;20032;-64
2022/01/11 04:04:09;;;;;;;2.63;2.20;;;;;;;1.40;100.00;90171.47;5090794;28;20031;-63
2022/01/11 04:06:34;;;;;;;4.32;3.17;;;;;;;1.39;100.00;90166.50;5090571;28;20526;-64
2022/01/11 04:09:00;;;;;;;10.10;5.50;;;;;;;1.42;100.00;90176.44;5090687;28;20047;-64
2022/01/11 04:11:25;;;;;;;6.25;4.10;;;;;;;1.42;100.00;90176.44;5090693;28;20040;-64
2022/01/11 04:13:51;;;;;;;6.97;4.05;;;;;;;1.40;100.00;90187.19;5090617;28;20091;-64
2022/01/11 04:16:16;;;;;;;4.60;3.20;;;;;;;1.42;100.00;90179.88;5090599;28;20123;-64
2022/01/11 04:18:42;;;;;;;3.65;3.00;;;;;;;1.35;100.00;90175.97;5090630;28;20039;-64
2022/01/11 04:21:08;;;;;;;3.05;2.50;;;;;;;1.20;100.00;90180.25;5072380;28;20085;-64
2022/01/11 04:23:34;;;;;;;6.13;4.53;;;;;;;1.17;100.00;90187.88;5090655;28;20092;-64
2022/01/11 04:26:00;;;;;;;4.18;3.50;;;;;;;1.12;100.00;90206.22;5090430;28;20409;-64
2022/01/11 04:28:27;;;;;;;6.38;3.97;;;;;;;1.11;100.00;90199.44;5081852;28;20395;-64
2022/01/11 04:30:57;;;;;;;5.05;3.13;;;;;;;1.06;100.00;90202.84;5078370;28;20111;-64
2022/01/11 04:33:24;;;;;;;5.60;3.25;;;;;;;1.14;100.00;90204.13;5090489;28;20024;-63
2022/01/11 04:35:50;;;;;;;5.65;2.65;;;;;;;1.16;100.00;90204.63;5077278;28;20438;-63
2022/01/11 04:38:22;;;;;;;4.13;3.15;;;;;;;1.12;100.00;90211.47;5076949;28;20025;-63
2022/01/11 04:40:48;;;;;;;18.92;8.77;;;;;;;0.99;100.00;90196.34;5074128;28;20028;-64
2022/01/11 04:43:14;;;;;;;8.48;4.60;;;;;;;1.02;100.00;90206.28;5073919;28;20032;-63
2022/01/11 04:45:40;;;;;;;23.98;14.27;;;;;;;1.05;100.00;90216.19;5073769;28;20035;-64
2022/01/11 04:48:06;;;;;;;9.73;6.30;;;;;;;1.09;100.00;90220.63;5073868;28;20575;-65
2022/01/11 04:50:32;;;;;;;9.73;6.70;;;;;;;1.07;100.00;90224.56;5073987;28;20383;-63
2022/01/11 04:52:58;;;;;;;9.40;6.55;;;;;;;1.08;100.00;90236.59;5073586;28;20025;-65
2022/01/11 04:55:24;;;;;;;9.38;5.78;;;;;;;1.11;100.00;90230.84;5073570;28;20028;-65
2022/01/11 04:57:50;;;;;;;8.15;5.05;;;;;;;1.07;100.00;90240.28;5073738;28;20107;-65
2022/01/11 05:00:18;;;;;;;30.25;15.52;;;;;;;1.12;100.00;90237.66;5073761;28;20119;-64
2022/01/11 05:02:45;;;;;;;17.90;8.80;;;;;;;1.04;100.00;90239.00;5073674;28;20032;-63
2022/01/11 05:05:10;;;;;;;28.90;13.45;;;;;;;1.05;100.00;90239.78;5073256;28;20024;-65
2022/01/11 05:07:36;;;;;;;15.82;8.07;;;;;;;0.99;100.00;90248.72;5073573;28;20085;-65
2022/01/11 05:10:04;;;;;;;20.05;10.65;;;;;;;0.95;100.00;90248.47;5073532;28;20029;-65
2022/01/11 05:12:30;;;;;;;16.70;10.70;;;;;;;0.90;100.00;90251.88;5073475;28;20512;-65
2022/01/11 05:14:55;;;;;;;15.27;10.10;;;;;;;0.90;100.00;90267.56;5073245;28;20024;-65
2022/01/11 05:17:21;;;;;;;22.42;12.07;;;;;;;0.99;100.00;90264.41;5073347;28;20032;-65
2022/01/11 05:19:46;;;;;;;33.63;17.30;;;;;;;0.81;100.00;90269.19;5073350;28;20082;-65
2022/01/11 05:22:12;;;;;;;7.25;4.90;;;;;;;0.77;100.00;90268.13;5073259;28;20028;-65
2022/01/11 05:24:38;;;;;;;12.25;10.27;;;;;;;0.50;100.00;90276.31;5073227;28;20027;-65
2022/01/11 05:27:03;;;;;;;14.30;8.25;;;;;;;0.49;100.00;90277.38;5073009;28;20168;-65
2022/01/11 05:29:31;;;;;;;19.45;11.20;;;;;;;0.51;100.00;90277.09;5073028;28;20021;-65
2022/01/11 05:31:58;;;;;;;11.75;7.70;;;;;;;0.41;100.00;90271.88;5073085;28;20032;-65
2022/01/11 05:34:25;;;;;;;23.35;11.65;;;;;;;0.40;100.00;90286.00;5073133;28;20060;-64
2022/01/11 05:36:51;;;;;;;15.95;9.95;;;;;;;0.39;100.00;90287.03;5072798;28;20040;-65
2022/01/11 05:39:16;;;;;;;25.60;15.27;;;;;;;0.41;100.00;90293.59;5072769;28;20032;-63
2022/01/11 05:41:42;;;;;;;35.28;20.52;;;;;;;0.39;100.00;90305.34;5072808;28;20031;-64
2022/01/11 05:44:07;;;;;;;23.33;13.65;;;;;;;0.22;100.00;90298.56;5072755;28;20017;-64
2022/01/11 05:46:33;;;;;;;47.25;21.48;;;;;;;0.16;100.00;90301.44;5072663;28;20054;-63
2022/01/11 05:48:59;;;;;;;29.95;15.23;;;;;;;0.17;100.00;90305.63;5072582;28;20028;-65
2022/01/11 05:51:26;;;;;;;58.88;25.77;;;;;;;0.25;100.00;90308.50;5071805;28;20041;-66
2022/01/11 05:53:52;;;;;;;47.55;24.92;;;;;;;0.25;100.00;90313.72;5072496;28;20505;-63
2022/01/11 05:56:18;;;;;;;49.42;24.35;;;;;;;0.20;100.00;90329.44;5072487;28;20028;-66
2022/01/11 05:58:44;;;;;;;43.53;24.05;;;;;;;0.18;100.00;90328.91;5072521;28;20423;-65
2022/01/11 06:01:09;;;;;;;34.10;18.75;;;;;;;0.11;100.00;90323.13;5072449;28;20509;-65
2022/01/11 06:03:35;;;;;;;17.73;10.77;;;;;;;0.09;100.00;90321.81;5072432;28;20028;-65
2022/01/11 06:06:00;;;;;;;14.90;8.70;;;;;;;-0.05;100.00;90324.94;5072123;28;20189;-64
2022/01/11 06:08:26;;;;;;;18.05;10.38;;;;;;;-0.05;100.00;90334.63;5072379;28;20025;-64
2022/01/11 06:10:51;;;;;;;15.02;8.85;;;;;;;-0.19;100.00;90339.56;5072178;28;20083;-65
2022/01/11 06:13:17;;;;;;;15.95;8.48;;;;;;;-0.22;100.00;90324.41;5072161;28;20025;-64
2022/01/11 06:15:42;;;;;;;22.60;12.85;;;;;;;-0.25;100.00;90350.28;5071920;28;20108;-63
2022/01/11 06:18:08;;;;;;;17.48;9.98;;;;;;;-0.42;100.00;90340.03;5072090;28;20374;-64
2022/01/11 06:20:34;;;;;;;23.52;12.02;;;;;;;-0.41;100.00;90347.63;5072012;28;20024;-63
2022/01/11 06:22:59;;;;;;;14.98;9.55;;;;;;;-0.48;100.00;90352.28;5071624;28;20082;-63
2022/01/11 06:25:25;;;;;;;15.73;9.82;;;;;;;-0.47;100.00;90359.09;5071830;28;20032;-64
2022/01/11 06:27:51;;;;;;;14.68;8.20;;;;;;;-0.39;100.00;90358.59;5071918;28;20490;-63
2022/01/11 06:30:17;;;;;;;13.40;6.95;;;;;;;-0.29;100.00;90367.53;5071868;28;20114;-62
2022/01/11 06:32:44;;;;;;;20.80;8.23;;;;;;;-0.53;100.00;90370.56;5071815;28;20051;-63
2022/01/11 06:35:12;;;;;;;18.08;10.10;;;;;;;-0.55;100.00;90367.41;5071421;28;20032;-63
2022/01/11 06:37:37;;;;;;;18.95;11.50;;;;;;;-0.54;100.00;90376.81;5071156;28;20052;-63
2022/01/11 06:40:04;;;;;;;29.38;19.30;;;;;;;-0.43;100.00;90378.44;5071650;28;20059;-62
2022/01/11 06:42:31;;;;;;;16.00;9.73;;;;;;;-0.56;100.00;90371.06;5071409;28;20505;-64
2022/01/11 06:44:57;;;;;;;18.52;12.02;;;;;;;-0.58;100.00;90372.38;5071380;28;20056;-64
2022/01/11 06:47:22;;;;;;;27.08;13.30;;;;;;;-0.68;100.00;90363.44;5071360;28;20568;-64
2022/01/11 06:49:48;;;;;;;14.07;8.15;;;;;;;-0.62;100.00;90385.94;5071479;28;20032;-64
2022/01/11 06:52:13;;;;;;;13.52;8.48;;;;;;;-0.57;100.00;90379.16;5071405;28;20051;-65
2022/01/11 06:54:40;;;;;;;9.60;6.50;;;;;;;-0.41;100.00;90388.63;5071255;28;20059;-64
2022/01/11 06:57:06;;;;;;;22.73;11.60;;;;;;;-0.50;100.00;90396.16;5071240;28;20090;-64
2022/01/11 06:59:32;;;;;;;17.15;10.35;;;;;;;-0.57;100.00;90394.84;5071352;28;20025;-64
2022/01/11 07:01:57;;;;;;;15.77;9.30;;;;;;;-0.55;100.00;90406.59;5071040;28;20482;-64
2022/01/11 07:04:23;;;;;;;13.63;9.00;;;;;;;-0.46;100.00;90412.13;5071408;28;20470;-64
2022/01/11 07:06:48;;;;;;;17.90;11.60;;;;;;;-0.57;100.00;90418.34;5070915;28;20044;-64
2022/01/11 07:09:14;;;;;;;13.98;8.57;;;;;;;-0.62;100.00;90419.13;5071117;28;20025;-64
2022/01/11 07:11:39;;;;;;;12.32;9.05;;;;;;;-0.57;100.00;90421.75;5053127;28;20142;-64
2022/01/11 07:14:05;;;;;;;12.55;8.15;;;;;;;-0.42;100.00;90423.66;5071018;28;20031;-64
2022/01/11 07:16:31;;;;;;;18.23;11.95;;;;;;;-0.25;100.00;90423.44;5070435;28;20046;-64
2022/01/11 07:18:57;;;;;;;18.17;11.52;;;;;;;0.24;100.00;90435.09;5070964;28;20103;-64
2022/01/11 07:21:22;;;;;;;15.48;10.88;;;;;;;-0.14;100.00;90430.28;5070854;28;20024;-65
2022/01/11 07:23:48;;;;;;;154.68;86.78;;;;;;;-0.07;100.00;90430.81;5070893;28;20025;-65
2022/01/11 07:26:13;;;;;;;48.58;29.58;;;;;;;0.20;100.00;90441.91;5052825;28;20074;-65
2022/01/11 07:28:39;;;;;;;17.08;11.55;;;;;;;0.17;100.00;90439.81;5070663;28;20050;-65
2022/01/11 07:31:04;;;;;;;19.83;12.50;;;;;;;-0.19;100.00;90440.72;5070648;28;20032;-65
2022/01/11 07:33:30;;;;;;;19.70;13.93;;;;;;;-0.22;100.00;90436.78;5070675;28;20026;-64
2022/01/11 07:35:55;;;;;;;23.60;14.98;;;;;;;-0.14;100.00;90438.13;5070423;28;20440;-65
2022/01/11 07:38:21;;;;;;;19.48;13.27;;;;;;;-0.44;100.00;90439.56;5070617;28;20406;-65
2022/01/11 07:40:47;;;;;;;23.70;15.90;;;;;;;-0.44;100.00;90450.03;5070675;28;20559;-65
2022/01/11 07:43:12;;;;;;;34.35;21.45;;;;;;;-0.41;100.00;90446.91;5070581;28;20493;-65
2022/01/11 07:45:37;;;;;;;27.20;18.77;;;;;;;-0.49;100.00;90457.81;5070511;28;20035;-64
2022/01/11 07:48:03;;;;;;;20.05;12.38;;;;;;;-0.64;100.00;90444.69;5070554;28;20025;-65
2022/01/11 07:50:29;;;;;;;23.42;14.68;;;;;;;-0.71;100.00;90460.59;5070546;28;20024;-64
2022/01/11 07:52:54;;;;;;;30.88;18.15;;;;;;;-0.61;100.00;90467.72;5070532;28;20110;-65
2022/01/11 07:55:20;;;;;;;24.23;14.80;;;;;;;-0.69;100.00;90461.13;5072842;28;20500;-65
2022/01/11 07:57:46;;;;;;;27.25;17.73;;;;;;;-0.66;100.00;90470.28;5089987;28;20024;-65
2022/01/11 08:00:13;;;;;;;31.60;19.35;;;;;;;-0.61;100.00;90472.94;5089964;28;20028;-65
2022/01/11 08:02:39;;;;;;;41.67;26.40;;;;;;;-0.54;100.00;90481.31;5090055;28;20024;-65
2022/01/11 08:05:06;;;;;;;39.42;23.35;;;;;;;-0.56;100.00;90486.00;5089965;28;20536;-65
2022/01/11 08:07:32;;;;;;;35.20;22.33;;;;;;;-0.44;100.00;90486.59;5090419;28;20059;-65
2022/01/11 08:09:58;;;;;;;51.70;31.05;;;;;;;-0.51;100.00;90493.09;5090670;28;20036;-65
2022/01/11 08:12:24;;;;;;;56.30;30.65;;;;;;;-0.45;100.00;90492.88;5090596;28;20051;-65
2022/01/11 08:14:49;;;;;;;40.67;24.70;;;;;;;-0.55;100.00;90484.97;5091901;28;20035;-64
2022/01/11 08:17:18;;;;;;;44.38;26.70;;;;;;;-0.48;100.00;90488.13;5094573;28;20111;-65
2022/01/11 08:19:44;;;;;;;50.97;29.17;;;;;;;-0.41;100.00;90496.53;5094553;28;20035;-65
2022/01/11 08:22:10;;;;;;;76.93;40.83;;;;;;;-0.27;100.00;90499.50;5094424;28;20382;-65
2022/01/11 08:24:38;;;;;;;54.08;32.30;;;;;;;-0.27;100.00;90501.31;5094400;28;20034;-64
2022/01/11 08:27:04;;;;;;;48.90;28.60;;;;;;;-0.18;100.00;90508.41;5094405;28;20126;-65
2022/01/11 08:29:29;;;;;;;39.22;26.23;;;;;;;-0.36;100.00;90506.22;5094332;28;20525;-64
2022/01/11 08:31:56;;;;;;;36.60;23.70;;;;;;;-0.44;100.00;90520.56;5094285;28;20028;-64
2022/01/11 08:34:21;;;;;;;34.05;21.42;;;;;;;-0.44;100.00;90523.19;5078752;28;20064;-63
2022/01/11 08:36:48;;;;;;;51.00;29.77;;;;;;;-0.26;100.00;90515.97;5073649;28;20052;-63
2022/01/11 08:39:15;;;;;;;43.17;26.25;;;;;;;-0.10;100.00;90513.16;5073657;28;20036;-63
2022/01/11 08:41:41;;;;;;;55.22;33.78;;;;;;;0.10;100.00;90512.47;5073645;28;20033;-63
2022/01/11 08:44:09;;;;;;;47.95;28.35;;;;;;;0.15;100.00;90517.69;5073184;28;20752;-63
2022/01/11 08:46:37;;;;;;;39.13;26.73;;;;;;;0.31;100.00;90515.94;5073545;28;20494;-64
2022/01/11 08:49:04;;;;;;;38.45;22.77;;;;;;;0.34;100.00;90514.66;5073468;28;20524;-64
2022/01/11 08:51:29;;;;;;;34.40;20.98;;;;;;;0.19;100.00;90524.03;5073503;28;20033;-63
2022/01/11 08:53:55;;;;;;;21.58;13.68;;;;;;;0.16;100.00;90516.69;5073479;28;20111;-63
2022/01/11 08:56:20;;;;;;;17.95;10.52;;;;;;;0.15;100.00;90522.16;5073336;28;20417;-63
2022/01/11 08:58:46;;;;;;;13.43;8.73;;;;;;;0.07;100.00;90520.81;5073090;28;20025;-64
2022/01/11 09:01:12;;;;;;;13.90;8.52;;;;;;;0.02;100.00;90528.66;5073309;28;20029;-64
2022/01/11 09:03:38;;;;;;;13.35;9.48;;;;;;;-0.06;100.00;90532.53;5073235;28;20413;-63
2022/01/11 09:06:07;;;;;;;19.25;12.18;;;;;;;0.11;100.00;90526.31;5073097;28;20078;-63
2022/01/11 09:08:36;;;;;;;9.98;6.72;;;;;;;-0.01;100.00;90542.22;5073514;28;20052;-63
2022/01/11 09:11:04;;;;;;;15.10;8.85;;;;;;;0.06;100.00;90540.19;5073088;28;20041;-63
2022/01/11 09:13:30;;;;;;;13.85;8.15;;;;;;;-0.04;100.00;90540.91;5072680;28;20479;-63
2022/01/11 09:15:56;;;;;;;15.35;8.50;;;;;;;0.04;100.00;90544.09;5072885;28;20060;-63
2022/01/11 09:18:21;;;;;;;24.17;14.07;;;;;;;-0.02;100.00;90535.41;5072944;28;20028;-63
2022/01/11 09:20:47;;;;;;;13.77;8.40;;;;;;;0.07;100.00;90530.50;5073007;28;20028;-63
2022/01/11 09:23:13;;;;;;;11.35;6.20;;;;;;;0.05;100.00;90537.81;5072810;28;20024;-63
2022/01/11 09:25:39;;;;;;;9.35;5.65;;;;;;;-0.03;100.00;90532.00;5071731;28;20028;-63
2022/01/11 09:28:05;;;;;;;12.05;8.30;;;;;;;-0.03;100.00;90528.63;5072691;28;20032;-63
2022/01/11 09:30:31;;;;;;;12.18;7.85;;;;;;;-0.08;100.00;90529.38;5072370;28;20419;-64
2022/01/11 09:32:56;;;;;;;8.65;4.75;;;;;;;-0.12;100.00;90525.72;5072774;28;20060;-64
2022/01/11 09:35:22;;;;;;;12.85;8.20;;;;;;;-0.01;100.00;90529.16;5072510;28;20444;-63
2022/01/11 09:37:49;;;;;;;9.50;6.43;;;;;;;-0.24;100.00;90525.13;5072798;28;20063;-63
2022/01/11 09:40:16;;;;;;;13.25;7.80;;;;;;;-0.17;100.00;90519.66;5072644;28;20558;-62
2022/01/11 09:42:41;;;;;;;14.02;7.18;;;;;;;-0.05;100.00;90517.63;5072578;28;20035;-63
2022/01/11 09:45:09;;;;;;;14.10;8.13;;;;;;;-0.10;100.00;90521.00;5071942;28;20017;-62
2022/01/11 09:47:35;;;;;;;17.38;9.77;;;;;;;-0.12;100.00;90523.09;5054539;28;20028;-62
2022/01/11 09:50:01;;;;;;;13.70;7.55;;;;;;;-0.23;100.00;90533.75;5072335;28;20425;-62
2022/01/11 09:52:27;;;;;;;16.55;10.40;;;;;;;-0.28;100.00;90536.34;5072323;28;20085;-63
2022/01/11 09:54:55;;;;;;;13.18;9.27;;;;;;;-0.39;100.00;90533.66;5072171;28;20028;-62
2022/01/11 09:57:21;;;;;;;16.63;11.50;;;;;;;-0.19;100.00;90538.22;5072124;28;20560;-64
2022/01/11 09:59:47;;;;;;;7.60;5.68;;;;;;;-0.32;100.00;90522.97;5071795;28;20112;-63
2022/01/11 10:02:13;;;;;;;11.95;6.90;;;;;;;-0.32;100.00;90533.44;5072322;28;20358;-63
2022/01/11 10:04:40;;;;;;;7.30;5.30;;;;;;;-0.32;100.00;90534.25;5072326;28;20036;-65
2022/01/11 10:07:08;;;;;;;10.25;8.35;;;;;;;-0.71;100.00;90530.31;5072065;28;20122;-63
2022/01/11 10:09:48;;;;;;;12.82;7.65;;;;;;;-0.52;100.00;90538.53;5072319;28;20086;-63
2022/01/11 10:12:22;;;;;;;9.35;6.28;;;;;;;-0.35;100.00;90534.72;5071897;28;20037;-64
2022/01/11 10:14:53;;;;;;;10.80;6.70;;;;;;;-0.67;100.00;90541.81;5071672;28;20032;-64
2022/01/11 10:17:37;;;;;;;18.98;10.85;;;;;;;-0.62;100.00;90539.28;5071650;28;20114;-64
2022/01/11 10:20:16;;;;;;;20.05;11.88;;;;;;;-0.49;100.00;90544.03;5071884;28;20039;-64
2022/01/11 10:22:48;;;;;;;25.58;14.75;;;;;;;-0.66;100.00;90544.19;5071823;28;20020;-64
2022/01/11 10:25:14;;;;;;;30.73;16.30;;;;;;;-0.51;100.00;90538.28;5071514;28;20051;-64
2022/01/11 10:27:40;;;;;;;27.83;16.05;;;;;;;-0.68;100.00;90535.03;5071677;28;20516;-64
2022/01/11 10:30:10;;;;;;;21.00;14.25;;;;;;;-0.77;100.00;90541.78;5071308;28;20111;-64
2022/01/11 10:32:39;;;;;;;15.10;9.18;;;;;;;-0.70;100.00;90544.94;5071616;28;20108;-63
2022/01/11 10:35:09;;;;;;;15.30;10.45;;;;;;;-0.62;100.00;90539.28;5071306;28;20116;-67
2022/01/11 10:37:36;;;;;;;13.60;9.70;;;;;;;-0.42;100.00;90536.78;5070903;28;20020;-66
2022/01/11 10:40:06;;;;;;;17.15;9.18;;;;;;;-0.45;100.00;90532.06;5071512;28;20032;-66
2022/01/11 10:42:34;;;;;;;16.55;11.00;;;;;;;-0.50;100.00;90531.22;5071172;28;20064;-68
2022/01/11 10:45:07;;;;;;;11.13;7.57;;;;;;;-0.61;100.00;90543.47;5071265;28;20121;-66
2022/01/11 10:47:35;;;;;;;15.85;9.82;;;;;;;-0.60;100.00;90537.19;5071455;28;20066;-66
2022/01/11 10:50:12;;;;;;;24.92;13.52;;;;;;;-0.57;100.00;90551.56;5071434;28;20044;-66
2022/01/11 10:52:40;;;;;;;30.02;14.65;;;;;;;-0.27;100.00;90548.38;5071103;28;20135;-66
2022/01/11 10:55:08;;;;;;;21.63;13.52;;;;;;;-0.46;100.00;90559.25;5070861;28;20035;-66
2022/01/11 10:57:37;;;;;;;18.17;12.40;;;;;;;-0.63;100.00;90553.38;5070757;28;20028;-66
2022/01/11 11:00:12;;;;;;;30.73;19.38;;;;;;;-0.78;100.00;90561.09;5071039;28;20028;-66
2022/01/11 11:02:39;;;;;;;17.35;11.38;;;;;;;-0.92;100.00;90560.72;5070952;28;20032;-66
2022/01/11 11:05:17;;;;;;;16.90;12.65;;;;;;;-1.18;100.00;90561.53;5070512;28;20033;-66
2022/01/11 11:07:53;;;;;;;19.90;12.23;;;;;;;-1.39;100.00;90563.16;5070171;28;20105;-66
2022/01/11 11:10:47;;;;;;;41.83;24.17;;;;;;;-1.46;100.00;90559.94;5070757;28;20024;-66
2022/01/11 11:13:35;;;;;;;15.52;10.52;;;;;;;-1.11;100.00;90562.88;5069794;28;20036;-66
2022/01/11 11:16:17;;;;;;;25.60;14.40;;;;;;;-1.08;100.00;90561.63;5070577;28;20032;-66
2022/01/11 11:18:44;;;;;;;23.47;14.90;;;;;;;-1.19;100.00;90568.56;5070877;28;20036;-66
2022/01/11 11:21:18;;;;;;;29.38;17.88;;;;;;;-1.33;100.00;90570.78;5070758;28;20065;-66
2022/01/11 11:23:44;;;;;;;71.88;43.13;;;;;;;-1.36;100.00;90555.63;5070402;28;20104;-66